Time;durP1;ratioP1;P1;durP2;ratioP2;P2;SDS_P1;SDS_P2;PMS_P1;PMS_P2;Temp;Humidity;BMP_temperature;BMP_pressure;BME280_temperature;BME280_humidity;BME280_pressure;Samples;Min_cycle;Max_cycle;Signal;HPM_P1;HPM_P2
2022/11/08 00:01:41;;;;;;;;;;;;;;;9.76;65.06;95489.59;5032191;28;20102;-66
2022/11/08 00:04:07;;;;;;;;;;;;;;;9.79;64.64;95489.03;5029711;28;20065;-66
2022/11/08 00:14:45;;;;;;;;;;;;;;;9.19;64.30;95398.59;5031604;28;20061;-66
2022/11/08 00:17:11;;;;;;;;;;;;;;;9.68;64.59;95498.25;5030292;28;20029;-65
2022/11/08 00:19:36;;;;;;;;;;;;;;;9.69;64.09;95483.88;5031485;28;20013;-66
2022/11/08 00:22:02;;;;;;;;;;;;;;;9.70;64.19;95484.69;5030228;28;20052;-66
2022/11/08 00:24:27;;;;;;;;;;;;;;;9.69;64.42;95475.91;5031126;28;20069;-67
2022/11/08 00:26:52;;;;;;;;;;;;;;;9.69;64.59;95475.13;5028837;28;20021;-66
2022/11/08 00:29:17;;;;;;;;;;;;;;;9.68;64.63;95479.66;5029971;28;20010;-66
2022/11/08 00:31:43;;;;;;;;;;;;;;;9.64;64.55;95473.34;5029788;28;20018;-66
2022/11/08 00:34:08;;;;;;;;;;;;;;;9.66;63.95;95475.69;5029846;28;20021;-67
2022/11/08 00:36:34;;;;;;;;;;;;;;;9.67;64.11;95477.28;5026487;28;20431;-66
2022/11/08 00:38:59;;;;;;;;;;;;;;;9.64;64.22;95476.00;5029245;28;20013;-66
2022/11/08 00:41:24;;;;;;;;;;;;;;;9.62;64.62;95468.31;5031055;28;20002;-66
2022/11/08 00:43:49;;;;;;;;;;;;;;;9.61;64.39;95476.56;5029516;28;20378;-67
2022/11/08 00:46:14;;;;;;;;;;;;;;;9.58;64.09;95455.91;5028416;28;20060;-66
2022/11/08 00:48:40;;;;;;;;;;;;;;;9.62;64.25;95467.50;5030059;28;20010;-67
2022/11/08 00:51:06;;;;;;;;;;;;;;;9.63;64.54;95466.47;5030742;28;20009;-68
2022/11/08 00:53:31;;;;;;;;;;;;;;;9.63;64.48;95458.50;5030785;28;20025;-67
2022/11/08 00:56:00;;;;;;;;;;;;;;;9.62;63.98;95452.41;5028214;28;20022;-66
2022/11/08 00:58:26;;;;;;;;;;;;;;;9.57;64.12;95454.31;5030647;28;20013;-67
2022/11/08 01:00:51;;;;;;;;;;;;;;;9.55;64.05;95443.19;5029500;28;20014;-65
2022/11/08 01:03:20;;;;;;;;;;;;;;;9.54;63.79;95446.94;5030311;28;20475;-65
2022/11/08 01:05:45;;;;;;;;;;;;;;;9.49;64.30;95442.50;5028925;28;20014;-65
2022/11/08 01:08:11;;;;;;;;;;;;;;;9.51;64.32;95439.53;5030588;28;20006;-65
2022/11/08 01:10:39;;;;;;;;;;;;;;;9.45;64.36;95440.69;5029096;28;20029;-65
2022/11/08 01:13:04;;;;;;;;;;;;;;;9.52;64.49;95436.63;5030258;28;20483;-66
2022/11/08 01:15:34;;;;;;;;;;;;;;;9.54;64.39;95428.34;5028488;28;20045;-66
2022/11/08 01:17:59;;;;;;;;;;;;;;;9.56;64.19;95432.28;5029103;28;20018;-66
2022/11/08 01:20:24;;;;;;;;;;;;;;;9.56;64.25;95420.88;5030435;28;20006;-67
2022/11/08 01:22:49;;;;;;;;;;;;;;;9.53;63.59;95424.91;5029123;28;20006;-66
2022/11/08 01:25:15;;;;;;;;;;;;;;;9.49;63.94;95426.56;5029653;28;20745;-67
2022/11/08 01:27:42;;;;;;;;;;;;;;;9.51;63.75;95424.41;5028639;28;20009;-67
2022/11/08 01:30:07;;;;;;;;;;;;;;;9.52;63.62;95427.84;5030460;28;20362;-67
2022/11/08 01:32:32;;;;;;;;;;;;;;;9.47;63.55;95423.41;5027296;28;20022;-67
2022/11/08 01:34:58;;;;;;;;;;;;;;;9.49;63.73;95420.47;5029657;28;20068;-68
2022/11/08 01:37:23;;;;;;;;;;;;;;;9.47;63.75;95411.97;5030111;28;20391;-68
2022/11/08 01:39:48;;;;;;;;;;;;;;;9.45;63.80;95414.94;5028881;28;20025;-66
2022/11/08 01:42:13;;;;;;;;;;;;;;;9.43;63.62;95409.13;5028758;28;20010;-67
2022/11/08 01:44:59;;;;;;;;;;;;;;;9.41;63.29;95410.50;5029126;28;20010;-68
2022/11/08 01:47:24;;;;;;;;;;;;;;;9.38;63.43;95404.69;5009833;28;20093;-69
2022/11/08 01:49:50;;;;;;;;;;;;;;;9.30;63.88;95405.34;5010273;28;20049;-68
2022/11/08 01:52:26;;;;;;;;;;;;;;;9.31;63.40;95414.88;5009997;28;20025;-67
2022/11/08 01:55:10;;;;;;;;;;;;;;;9.22;63.47;95410.53;5008380;28;20009;-67
2022/11/08 01:57:45;;;;;;;;;;;;;;;9.13;63.73;95399.75;5014595;28;20012;-68
2022/11/08 02:00:13;;;;;;;;;;;;;;;9.13;63.72;95398.97;5028581;28;20014;-68
2022/11/08 02:02:40;;;;;;;;;;;;;;;9.11;63.93;95396.63;5028315;28;20006;-68
2022/11/08 02:05:23;;;;;;;;;;;;;;;9.06;64.05;95392.16;5028184;28;20013;-68
2022/11/08 02:07:49;;;;;;;;;;;;;;;8.82;64.76;95386.13;5028574;28;20005;-67
2022/11/08 02:10:14;;;;;;;;;;;;;;;8.90;64.57;95387.34;5028046;28;20521;-68
2022/11/08 02:12:40;;;;;;;;;;;;;;;8.88;64.70;95381.56;5029507;28;20087;-67
2022/11/08 02:15:05;;;;;;;;;;;;;;;8.87;64.26;95377.31;5029288;28;20041;-67
2022/11/08 02:17:31;;;;;;;;;;;;;;;8.85;64.54;95364.34;5029649;28;20001;-67
2022/11/08 02:19:59;;;;;;;;;;;;;;;8.83;63.94;95366.50;5028302;28;20036;-66
2022/11/08 02:22:26;;;;;;;;;;;;;;;8.81;64.41;95369.44;5028291;28;20006;-67
2022/11/08 02:24:53;;;;;;;;;;;;;;;8.78;64.40;95367.34;5027992;28;20018;-67
2022/11/08 02:27:18;;;;;;;;;;;;;;;8.76;64.30;95366.84;5031123;28;20007;-67
2022/11/08 02:29:43;;;;;;;;;;;;;;;8.76;64.44;95363.41;5033572;28;20075;-67
2022/11/08 02:32:10;;;;;;;;;;;;;;;8.75;64.45;95359.97;5030251;28;20022;-67
2022/11/08 02:34:37;;;;;;;;;;;;;;;8.75;64.63;95364.47;5033356;28;20799;-68
2022/11/08 02:37:04;;;;;;;;;;;;;;;8.74;64.62;95363.69;5032966;28;20010;-68
2022/11/08 02:39:29;;;;;;;;;;;;;;;8.73;64.48;95361.34;5033060;28;20504;-67
2022/11/08 02:41:55;;;;;;;;;;;;;;;8.70;64.35;95362.72;5032076;28;20060;-68
2022/11/08 02:44:20;;;;;;;;;;;;;;;8.68;64.38;95362.19;5033093;28;20397;-68
2022/11/08 02:46:45;;;;;;;;;;;;;;;8.68;64.46;95361.41;5031376;28;20020;-68
2022/11/08 02:49:10;;;;;;;;;;;;;;;8.65;64.65;95354.00;5032289;28;20104;-67
2022/11/08 02:51:35;;;;;;;;;;;;;;;8.63;64.56;95356.94;5031689;28;20398;-66
2022/11/08 02:54:01;;;;;;;;;;;;;;;8.62;64.69;95351.94;5033001;28;20040;-67
2022/11/08 02:56:26;;;;;;;;;;;;;;;8.58;64.52;95354.38;5031120;28;20010;-68
2022/11/08 02:58:51;;;;;;;;;;;;;;;8.57;64.51;95352.78;5031722;28;20021;-67
2022/11/08 03:01:16;;;;;;;;;;;;;;;8.57;64.39;95347.50;5030293;28;20014;-67
2022/11/08 03:03:41;;;;;;;;;;;;;;;8.54;64.59;95345.41;5032972;28;20005;-67
2022/11/08 03:06:07;;;;;;;;;;;;;;;8.55;64.52;95345.13;5032330;28;20010;-67
2022/11/08 03:08:32;;;;;;;;;;;;;;;8.52;64.42;95342.25;5032621;28;20370;-68
2022/11/08 03:11:00;;;;;;;;;;;;;;;8.52;64.28;95340.38;5032383;28;20014;-68
2022/11/08 03:13:25;;;;;;;;;;;;;;;8.52;64.58;95336.94;5029701;28;20061;-68
2022/11/08 03:15:50;;;;;;;;;;;;;;;8.51;64.50;95336.16;5032161;28;20006;-67
2022/11/08 03:18:15;;;;;;;;;;;;;;;8.52;64.61;95336.94;5032476;28;20029;-67
2022/11/08 03:20:41;;;;;;;;;;;;;;;8.50;64.59;95333.81;5032595;28;20045;-67
2022/11/08 03:23:06;;;;;;;;;;;;;;;8.31;64.55;95341.69;5032440;28;20014;-67
2022/11/08 03:25:32;;;;;;;;;;;;;;;8.39;64.74;95341.06;5031147;28;20402;-67
2022/11/08 03:28:01;;;;;;;;;;;;;;;8.37;64.72;95329.97;5030742;28;20377;-67
2022/11/08 03:30:27;;;;;;;;;;;;;;;8.03;65.64;95340.69;5032230;28;20009;-68
2022/11/08 03:32:52;;;;;;;;;;;;;;;7.67;68.41;95342.94;5029673;28;20032;-67
2022/11/08 03:35:17;;;;;;;;;;;;;;;8.08;66.53;95341.41;5029477;28;20060;-67
2022/11/08 03:37:49;;;;;;;;;;;;;;;8.17;65.86;95338.94;5030728;28;20010;-67
2022/11/08 03:40:15;;;;;;;;;;;;;;;8.18;65.33;95340.50;5030197;28;20063;-66
2022/11/08 03:42:40;;;;;;;;;;;;;;;8.18;65.52;95339.72;5030069;28;20018;-67
2022/11/08 03:45:05;;;;;;;;;;;;;;;8.18;65.58;95332.56;5030382;28;20498;-68
2022/11/08 03:47:35;;;;;;;;;;;;;;;8.20;65.36;95329.66;5032002;28;20006;-67
2022/11/08 03:50:00;;;;;;;;;;;;;;;8.20;65.11;95319.06;5032064;28;20030;-67
2022/11/08 03:52:26;;;;;;;;;;;;;;;8.16;64.93;95323.34;5030232;28;20470;-67
2022/11/08 03:54:51;;;;;;;;;;;;;;;8.15;65.27;95324.41;5030705;28;20021;-67
2022/11/08 03:57:16;;;;;;;;;;;;;;;8.18;65.17;95315.88;5030836;28;20053;-67
2022/11/08 03:59:41;;;;;;;;;;;;;;;8.21;65.18;95324.06;5031030;28;20017;-67
2022/11/08 04:02:06;;;;;;;;;;;;;;;8.24;65.01;95323.50;5030631;28;20100;-66
2022/11/08 04:04:31;;;;;;;;;;;;;;;8.26;64.76;95320.56;5031785;28;20010;-68
2022/11/08 04:06:57;;;;;;;;;;;;;;;8.29;64.98;95326.09;5029038;28;20013;-67
2022/11/08 04:09:22;;;;;;;;;;;;;;;8.30;64.54;95314.41;5031972;28;20013;-67
2022/11/08 04:17:15;;;;;;;;;;;;;;;8.37;64.50;95314.09;5031728;28;20060;-67
2022/11/08 04:22:24;;;;;;;;;;;;;;;8.37;64.52;95315.94;5032191;28;20013;-67
2022/11/08 04:24:49;;;;;;;;;;;;;;;8.34;64.04;95318.06;5030085;28;20010;-67
2022/11/08 04:27:14;;;;;;;;;;;;;;;8.33;64.21;95313.81;5030307;28;20037;-68
2022/11/08 04:29:39;;;;;;;;;;;;;;;8.31;64.30;95310.69;5031712;28;20467;-68
2022/11/08 04:32:04;;;;;;;;;;;;;;;8.24;64.41;95310.25;5030631;28;20524;-67
2022/11/08 04:34:30;;;;;;;;;;;;;;;8.20;64.17;95311.09;5031289;28;20059;-68
2022/11/08 04:36:55;;;;;;;;;;;;;;;8.18;64.22;95307.94;5029983;28;20021;-68
2022/11/08 04:39:20;;;;;;;;;;;;;;;8.14;64.58;95302.44;5029892;28;20455;-68
2022/11/08 04:41:45;;;;;;;;;;;;;;;8.09;64.12;95299.84;5031644;28;20010;-68
2022/11/08 04:44:10;;;;;;;;;;;;;;;8.04;64.38;95292.75;5030250;28;20048;-67
2022/11/08 04:46:36;;;;;;;;;;;;;;;7.99;64.36;95289.38;5029382;28;20063;-67
2022/11/08 04:49:01;;;;;;;;;;;;;;;7.96;64.44;95289.91;5029995;28;20096;-67
2022/11/08 04:51:28;;;;;;;;;;;;;;;7.90;64.18;95285.75;5029353;28;20148;-67
2022/11/08 04:53:55;;;;;;;;;;;;;;;7.91;65.03;95287.34;5030870;28;20018;-64
2022/11/08 04:56:20;;;;;;;;;;;;;;;7.86;64.78;95293.47;5029044;28;20009;-65
2022/11/08 04:58:47;;;;;;;;;;;;;;;7.86;64.99;95296.13;5030538;28;20010;-66
2022/11/08 05:01:14;;;;;;;;;;;;;;;7.81;64.99;95291.66;5029800;28;20013;-67
2022/11/08 05:03:39;;;;;;;;;;;;;;;7.79;64.65;95285.09;5029161;28;20065;-67
2022/11/08 05:06:06;;;;;;;;;;;;;;;7.75;64.25;95284.84;5028480;28;20014;-66
2022/11/08 05:08:31;;;;;;;;;;;;;;;7.72;64.89;95276.69;5030202;28;20006;-67
2022/11/08 05:11:04;;;;;;;;;;;;;;;7.72;64.91;95274.03;5029214;28;20036;-66
2022/11/08 05:13:30;;;;;;;;;;;;;;;7.71;64.88;95272.47;5029127;28;20505;-64
2022/11/08 05:15:58;;;;;;;;;;;;;;;7.62;64.74;95274.94;5028850;28;20010;-68
2022/11/08 05:18:24;;;;;;;;;;;;;;;7.54;65.09;95267.63;5030244;28;20059;-68
2022/11/08 05:23:37;;;;;;;;;;;;;;;7.66;65.31;95273.31;5030199;28;20032;-66
2022/11/08 05:26:05;;;;;;;;;;;;;;;7.65;65.04;95271.72;5030075;28;20463;-65
2022/11/08 05:28:31;;;;;;;;;;;;;;;7.63;64.91;95275.75;5028767;28;20371;-67
2022/11/08 05:30:56;;;;;;;;;;;;;;;7.63;64.62;95273.88;5030059;28;20064;-68
2022/11/08 05:33:22;;;;;;;;;;;;;;;7.62;64.99;95268.84;5028954;28;20022;-65
2022/11/08 05:35:47;;;;;;;;;;;;;;;7.65;64.93;95265.66;5029448;28;20010;-69
2022/11/08 05:38:12;;;;;;;;;;;;;;;7.63;65.12;95262.50;5030077;28;20013;-67
2022/11/08 05:40:37;;;;;;;;;;;;;;;7.66;64.66;95260.06;5029927;28;20010;-67
2022/11/08 05:43:03;;;;;;;;;;;;;;;7.68;64.50;95259.81;5029968;28;20032;-67
2022/11/08 05:45:28;;;;;;;;;;;;;;;7.69;64.83;95256.09;5026374;28;20385;-67
2022/11/08 05:47:53;;;;;;;;;;;;;;;7.72;64.82;95253.63;5025346;28;20014;-68
2022/11/08 05:50:18;;;;;;;;;;;;;;;7.72;64.68;95258.94;5022847;28;20072;-67
2022/11/08 05:52:44;;;;;;;;;;;;;;;7.66;64.96;95256.63;5009624;28;20435;-66
2022/11/08 05:55:09;;;;;;;;;;;;;;;7.71;64.73;95261.88;5019456;28;20014;-67
2022/11/08 05:57:34;;;;;;;;;;;;;;;7.60;64.82;95261.19;5021994;28;20017;-65
2022/11/08 06:00:00;;;;;;;;;;;;;;;7.52;65.92;95270.56;5009814;28;20013;-68
2022/11/08 06:02:29;;;;;;;;;;;;;;;7.80;66.47;95260.97;5017041;28;20017;-67
2022/11/08 06:04:54;;;;;;;;;;;;;;;8.05;65.74;95270.47;5029964;28;20014;-68
2022/11/08 06:07:19;;;;;;;;;;;;;;;8.12;65.41;95264.03;5028065;28;20014;-67
2022/11/08 06:09:44;;;;;;;;;;;;;;;8.16;65.01;95268.47;5032332;28;20013;-68
2022/11/08 06:12:09;;;;;;;;;;;;;;;8.23;64.40;95268.13;5031313;28;20116;-67
2022/11/08 06:14:35;;;;;;;;;;;;;;;8.22;63.73;95269.19;5032006;28;20010;-67
2022/11/08 06:17:00;;;;;;;;;;;;;;;8.21;63.74;95271.06;5032003;28;20462;-67
2022/11/08 06:19:25;;;;;;;;;;;;;;;8.23;63.15;95268.91;5032845;28;20470;-66
2022/11/08 06:21:50;;;;;;;;;;;;;;;8.24;63.24;95259.91;5031871;28;20014;-66
2022/11/08 06:24:16;;;;;;;;;;;;;;;8.23;62.75;95271.56;5031575;28;20021;-67
2022/11/08 06:26:41;;;;;;;;;;;;;;;8.21;62.98;95271.06;5030570;28;20014;-67
2022/11/08 06:29:06;;;;;;;;;;;;;;;8.18;63.12;95286.72;5031576;28;20398;-65
2022/11/08 06:31:32;;;;;;;;;;;;;;;8.27;63.20;95275.22;5032243;28;20017;-66
2022/11/08 06:33:57;;;;;;;;;;;;;;;8.21;62.95;95278.22;5033714;28;20356;-64
2022/11/08 06:36:22;;;;;;;;;;;;;;;8.36;63.15;95274.59;5033178;28;20082;-66
2022/11/08 06:38:52;;;;;;;;;;;;;;;8.45;63.03;95281.66;5033501;28;20384;-68
2022/11/08 06:41:18;;;;;;;;;;;;;;;8.53;63.06;95275.69;5032903;28;20012;-71
2022/11/08 06:43:43;;;;;;;;;;;;;;;8.61;62.57;95276.13;5030702;28;20053;-66
2022/11/08 06:46:08;;;;;;;;;;;;;;;8.70;62.63;95272.53;5033400;28;20486;-67
2022/11/08 06:48:33;;;;;;;;;;;;;;;8.81;62.21;95278.47;5033453;28;20006;-67
2022/11/08 06:50:59;;;;;;;;;;;;;;;8.91;61.97;95283.63;5031170;28;20100;-67
2022/11/08 06:53:25;;;;;;;;;;;;;;;8.76;61.62;95292.59;5031314;28;20067;-65
2022/11/08 06:55:50;;;;;;;;;;;;;;;8.70;62.17;95287.63;5032063;28;20037;-66
2022/11/08 06:58:15;;;;;;;;;;;;;;;8.65;62.78;95291.19;5031449;28;20352;-66
2022/11/08 07:00:40;;;;;;;;;;;;;;;8.86;62.75;95278.41;5028423;28;20014;-66
2022/11/08 07:03:05;;;;;;;;;;;;;;;9.00;62.59;95281.88;5032617;28;20524;-66
2022/11/08 07:05:31;;;;;;;;;;;;;;;9.09;62.26;95284.66;5030698;28;20010;-67
2022/11/08 07:07:57;;;;;;;;;;;;;;;9.16;62.03;95290.38;5032023;28;20010;-67
2022/11/08 07:10:23;;;;;;;;;;;;;;;9.23;61.84;95280.19;5030798;28;20057;-67
2022/11/08 07:12:56;;;;;;;;;;;;;;;9.32;61.21;95283.75;5024689;28;20014;-68
2022/11/08 07:15:21;;;;;;;;;;;;;;;9.37;60.98;95281.00;5029471;28;20009;-67
2022/11/08 07:17:47;;;;;;;;;;;;;;;9.43;61.13;95286.22;5028875;28;20014;-67
2022/11/08 07:20:12;;;;;;;;;;;;;;;9.47;60.96;95282.69;5031369;28;20348;-67
2022/11/08 07:22:37;;;;;;;;;;;;;;;9.53;61.12;95281.50;5030149;28;20014;-67
2022/11/08 07:25:02;;;;;;;;;;;;;;;9.57;60.64;95268.41;5029612;28;20081;-66
2022/11/08 07:27:28;;;;;;;;;;;;;;;9.63;60.91;95283.19;5029709;28;20025;-67
2022/11/08 07:29:53;;;;;;;;;;;;;;;9.69;60.94;95282.03;5028713;28;20552;-67
2022/11/08 07:32:18;;;;;;;;;;;;;;;9.78;60.64;95279.47;5027586;28;20022;-67
2022/11/08 07:34:43;;;;;;;;;;;;;;;9.88;60.30;95279.28;5029005;28;20013;-67
2022/11/08 07:37:08;;;;;;;;;;;;;;;9.98;60.49;95280.94;5027940;28;20532;-68
2022/11/08 07:39:33;;;;;;;;;;;;;;;10.07;59.87;95273.84;5031990;28;20006;-69
2022/11/08 07:41:59;;;;;;;;;;;;;;;10.16;59.68;95274.72;5031636;28;20053;-68
2022/11/08 07:44:24;;;;;;;;;;;;;;;10.25;59.81;95270.31;5030462;28;20014;-68
2022/11/08 07:46:49;;;;;;;;;;;;;;;10.34;59.36;95278.38;5030538;28;20365;-68
2022/11/08 07:49:14;;;;;;;;;;;;;;;10.43;58.88;95275.78;5030228;28;20010;-68
2022/11/08 07:51:39;;;;;;;;;;;;;;;10.51;58.92;95275.09;5031536;28;20451;-68
2022/11/08 07:54:05;;;;;;;;;;;;;;;10.60;58.28;95268.75;5030367;28;20014;-68
2022/11/08 07:56:30;;;;;;;;;;;;;;;10.74;58.43;95262.59;5029732;28;20010;-68
2022/11/08 07:58:55;;;;;;;;;;;;;;;10.83;58.43;95269.56;5031522;28;20101;-68
2022/11/08 08:01:20;;;;;;;;;;;;;;;10.92;58.37;95262.44;5031150;28;20059;-68
2022/11/08 08:03:45;;;;;;;;;;;;;;;11.02;57.87;95260.63;5030555;28;20010;-68
2022/11/08 08:06:11;;;;;;;;;;;;;;;11.09;57.95;95258.31;5030527;28;20092;-68
2022/11/08 08:08:36;;;;;;;;;;;;;;;11.23;57.94;95250.25;5031041;28;20010;-67
2022/11/08 08:11:02;;;;;;;;;;;;;;;11.33;57.61;95250.78;5031029;28;20010;-68
2022/11/08 08:13:27;;;;;;;;;;;;;;;11.47;57.47;95249.91;5029763;28;20509;-67
2022/11/08 08:15:55;;;;;;;;;;;;;;;11.58;56.78;95245.88;5029964;28;20014;-68
2022/11/08 08:18:20;;;;;;;;;;;;;;;11.70;56.76;95246.06;5028320;28;20056;-68
2022/11/08 08:20:46;;;;;;;;;;;;;;;11.82;55.49;95243.63;5030452;28;20013;-68
2022/11/08 08:23:11;;;;;;;;;;;;;;;11.98;55.70;95252.03;5031123;28;20009;-68
2022/11/08 08:25:36;;;;;;;;;;;;;;;12.13;55.34;95254.25;5028649;28;20088;-67
2022/11/08 08:28:02;;;;;;;;;;;;;;;12.27;54.89;95256.78;5028828;28;20016;-68
2022/11/08 08:30:29;;;;;;;;;;;;;;;12.44;54.65;95256.03;5028864;28;20010;-68
2022/11/08 08:33:00;;;;;;;;;;;;;;;12.51;54.04;95266.22;5030283;28;20050;-69
2022/11/08 08:35:25;;;;;;;;;;;;;;;12.71;53.33;95263.72;5029351;28;20010;-68
2022/11/08 08:37:50;;;;;;;;;;;;;;;12.91;53.35;95264.22;5029385;28;20010;-67
2022/11/08 08:40:16;;;;;;;;;;;;;;;13.02;52.53;95263.56;5030588;28;20074;-69
2022/11/08 08:42:41;;;;;;;;;;;;;;;13.14;51.20;95260.25;5028812;28;20021;-69
2022/11/08 08:45:06;;;;;;;;;;;;;;;13.30;50.74;95257.88;5030522;28;20009;-69
2022/11/08 08:47:31;;;;;;;;;;;;;;;13.48;50.63;95253.28;5030558;28;20006;-67
2022/11/08 08:49:57;;;;;;;;;;;;;;;13.59;50.14;95253.72;5029406;28;20010;-68
2022/11/08 08:52:22;;;;;;;;;;;;;;;13.78;49.88;95251.47;5029016;28;20029;-68
2022/11/08 08:54:47;;;;;;;;;;;;;;;13.94;48.83;95257.84;5028827;28;20113;-70
2022/11/08 08:57:12;;;;;;;;;;;;;;;14.01;47.48;95252.75;5028874;28;20010;-68
2022/11/08 08:59:37;;;;;;;;;;;;;;;14.28;47.66;95253.41;5029006;28;20010;-68
2022/11/08 09:02:03;;;;;;;;;;;;;;;14.50;47.54;95253.13;5029451;28;20424;-67
2022/11/08 09:04:28;;;;;;;;;;;;;;;14.71;47.14;95249.69;5030161;28;20010;-67
2022/11/08 09:06:54;;;;;;;;;;;;;;;14.72;45.32;95257.38;5028889;28;20014;-68
2022/11/08 09:09:19;;;;;;;;;;;;;;;14.98;44.62;95254.47;5030681;28;20129;-68
2022/11/08 09:11:44;;;;;;;;;;;;;;;15.16;44.53;95249.75;5029258;28;20571;-68
2022/11/08 09:14:10;;;;;;;;;;;;;;;15.28;44.65;95246.34;5028925;28;20039;-69
2022/11/08 09:16:35;;;;;;;;;;;;;;;15.32;43.74;95252.59;5029798;28;20101;-68
2022/11/08 09:19:00;;;;;;;;;;;;;;;15.51;42.88;95247.53;5028651;28;20022;-68
2022/11/08 09:21:25;;;;;;;;;;;;;;;15.69;42.92;95241.97;5028794;28;20009;-69
2022/11/08 09:23:50;;;;;;;;;;;;;;;15.82;42.13;95247.03;5027847;28;20378;-68
2022/11/08 09:26:16;;;;;;;;;;;;;;;15.91;42.40;95254.94;5028425;28;20483;-69
2022/11/08 09:28:41;;;;;;;;;;;;;;;15.97;41.94;95245.59;5029636;28;20021;-68
2022/11/08 09:31:10;;;;;;;;;;;;;;;15.97;41.79;95244.78;5030233;28;20382;-68
2022/11/08 09:33:37;;;;;;;;;;;;;;;16.14;41.23;95243.78;5027914;28;20635;-69
2022/11/08 09:36:03;;;;;;;;;;;;;;;16.27;40.79;95258.75;5027645;28;20014;-69
2022/11/08 09:38:28;;;;;;;;;;;;;;;16.40;40.36;95263.00;5028319;28;20025;-67
2022/11/08 09:41:10;;;;;;;;;;;;;;;16.51;40.33;95258.72;5028239;28;20118;-69
2022/11/08 09:43:54;;;;;;;;;;;;;;;16.52;39.43;95262.97;5028660;28;20029;-70
2022/11/08 09:46:40;;;;;;;;;;;;;;;16.57;39.46;95257.38;5028447;28;20014;-68
2022/11/08 09:49:09;;;;;;;;;;;;;;;16.52;39.50;95259.50;4988233;28;20107;-68
2022/11/08 09:51:35;;;;;;;;;;;;;;;16.47;39.24;95260.53;5029716;28;20093;-69
2022/11/08 09:54:00;;;;;;;;;;;;;;;16.43;39.36;95250.78;5029601;28;20482;-67
2022/11/08 09:56:34;;;;;;;;;;;;;;;16.32;38.94;95237.81;5027937;28;20049;-68
2022/11/08 09:59:18;;;;;;;;;;;;;;;16.47;39.19;95241.72;5028083;28;20014;-68
2022/11/08 10:01:43;;;;;;;;;;;;;;;16.60;38.81;95237.13;5029610;28;20458;-67
2022/11/08 10:04:14;;;;;;;;;;;;;;;16.74;38.65;95240.25;5028455;28;20152;-68
2022/11/08 10:06:40;;;;;;;;;;;;;;;16.97;38.47;95251.25;5027895;28;20018;-68
2022/11/08 10:09:21;;;;;;;;;;;;;;;17.15;37.07;95243.69;5027486;28;20455;-67
2022/11/08 10:12:12;;;;;;;;;;;;;;;17.31;37.68;95241.81;5029517;28;20068;-68
2022/11/08 10:14:55;;;;;;;;;;;;;;;17.47;37.23;95236.47;5027135;28;20109;-67
2022/11/08 10:17:27;;;;;;;;;;;;;;;17.58;37.05;95242.88;5027386;28;20233;-70
2022/11/08 10:20:05;;;;;;;;;;;;;;;17.57;36.72;95241.34;5029343;28;20010;-67
2022/11/08 10:22:37;;;;;;;;;;;;;;;17.39;36.05;95238.19;5029069;28;20006;-67
2022/11/08 10:25:10;;;;;;;;;;;;;;;17.39;36.26;95248.16;5027875;28;20032;-67
2022/11/08 10:27:39;;;;;;;;;;;;;;;17.18;35.87;95237.63;5029129;28;20382;-68
2022/11/08 10:30:06;;;;;;;;;;;;;;;17.28;36.12;95230.97;5008249;28;20356;-69
2022/11/08 10:32:32;;;;;;;;;;;;;;;17.34;36.42;95233.03;5009359;28;20097;-69
2022/11/08 10:35:09;;;;;;;;;;;;;;;17.32;36.17;95237.22;5008073;28;20545;-69
2022/11/08 10:37:35;;;;;;;;;;;;;;;17.30;36.65;95228.69;5008374;28;20021;-68
2022/11/08 10:40:03;;;;;;;;;;;;;;;17.29;36.56;95221.75;5010870;28;20405;-67
2022/11/08 10:42:42;;;;;;;;;;;;;;;17.34;36.55;95221.50;5029168;28;20013;-67
2022/11/08 10:45:08;;;;;;;;;;;;;;;17.42;36.80;95225.97;5028983;28;20082;-68
2022/11/08 10:47:34;;;;;;;;;;;;;;;17.46;36.71;95221.47;5028325;28;20112;-68
2022/11/08 10:50:00;;;;;;;;;;;;;;;17.61;36.94;95220.69;5032133;28;20213;-68
2022/11/08 10:52:44;;;;;;;;;;;;;;;17.15;36.11;95222.97;5031352;28;20021;-68
2022/11/08 10:55:35;;;;;;;;;;;;;;;17.18;36.31;95223.41;5031545;28;20029;-68
2022/11/08 10:58:01;;;;;;;;;;;;;;;17.30;35.44;95213.38;5031085;28;20072;-68
2022/11/08 11:00:28;;;;;;;;;;;;;;;17.48;37.53;95213.03;5032576;28;20006;-69
2022/11/08 11:02:54;;;;;;;;;;;;;;;17.34;38.18;95214.22;5031310;28;20474;-68
2022/11/08 11:05:23;;;;;;;;;;;;;;;16.80;38.01;95213.94;5030896;28;20021;-66
2022/11/08 11:08:12;;;;;;;;;;;;;;;17.65;37.22;95212.69;5032654;28;20013;-68
2022/11/08 11:10:41;;;;;;;;;;;;;;;16.87;38.02;95212.22;5031362;28;20449;-68
2022/11/08 11:13:11;;;;;;;;;;;;;;;17.17;38.10;95217.25;5030641;28;20105;-69
2022/11/08 11:15:37;;;;;;;;;;;;;;;17.36;38.12;95214.69;5031981;28;20010;-69
2022/11/08 11:18:02;;;;;;;;;;;;;;;17.48;37.99;95219.19;5032471;28;20014;-68
2022/11/08 11:20:28;;;;;;;;;;;;;;;17.54;37.29;95222.41;5030390;28;20010;-68
2022/11/08 11:22:53;;;;;;;;;;;;;;;17.91;36.69;95214.88;5032126;28;20013;-68
2022/11/08 11:25:20;;;;;;;;;;;;;;;17.81;36.80;95213.53;5031712;28;20184;-68
2022/11/08 11:28:12;;;;;;;;;;;;;;;17.90;36.64;95211.41;5030719;28;20017;-67
2022/11/08 11:30:37;;;;;;;;;;;;;;;18.04;36.19;95202.13;5026981;28;20148;-68
2022/11/08 11:33:05;;;;;;;;;;;;;;;17.65;36.61;95201.94;5030412;28;20156;-68
2022/11/08 11:35:45;;;;;;;;;;;;;;;17.84;35.90;95203.97;5030202;28;20010;-68
2022/11/08 11:38:17;;;;;;;;;;;;;;;18.04;36.21;95197.53;5030616;28;20010;-69
2022/11/08 11:40:44;;;;;;;;;;;;;;;18.49;35.66;95190.81;5030437;28;20010;-68
2022/11/08 11:43:15;;;;;;;;;;;;;;;18.62;35.64;95183.38;5030530;28;20013;-66
2022/11/08 11:45:43;;;;;;;;;;;;;;;18.68;35.37;95185.47;5029467;28;20123;-67
2022/11/08 11:48:20;;;;;;;;;;;;;;;18.68;35.28;95180.09;5030314;28;20068;-68
2022/11/08 11:50:46;;;;;;;;;;;;;;;18.69;35.14;95184.34;5030345;28;20717;-67
2022/11/08 11:53:14;;;;;;;;;;;;;;;18.61;34.82;95184.50;5030376;28;20053;-69
2022/11/08 11:55:51;;;;;;;;;;;;;;;18.35;34.90;95185.91;5030613;28;20581;-68
2022/11/08 11:58:26;;;;;;;;;;;;;;;18.47;34.84;95186.91;5030448;28;20066;-68
2022/11/08 12:00:59;;;;;;;;;;;;;;;18.28;34.91;95188.44;5029422;28;20009;-68
2022/11/08 12:03:33;;;;;;;;;;;;;;;18.01;37.14;95192.03;5030352;28;20006;-67
2022/11/08 12:06:08;;;;;;;;;;;;;;;17.28;39.71;95194.09;5029844;28;20016;-67
2022/11/08 12:08:42;;;;;;;;;;;;;;;17.34;40.16;95192.72;5029246;28;20009;-68
2022/11/08 12:11:28;;;;;;;;;;;;;;;17.60;39.67;95189.53;5031558;28;20458;-68
2022/11/08 12:14:04;;;;;;;;;;;;;;;18.13;38.09;95186.56;5030995;28;20071;-68
2022/11/08 12:16:48;;;;;;;;;;;;;;;17.94;38.56;95195.34;5029942;28;20024;-67
2022/11/08 12:19:19;;;;;;;;;;;;;;;17.59;39.67;95193.34;5029887;28;20006;-68
2022/11/08 12:22:19;;;;;;;;;;;;;;;18.02;38.41;95183.63;5029919;28;20413;-68
2022/11/08 12:24:44;;;;;;;;;;;;;;;17.63;38.85;95190.75;5030132;28;20433;-67
2022/11/08 12:27:28;;;;;;;;;;;;;;;17.76;37.68;95188.78;5029500;28;20002;-67
2022/11/08 12:29:53;;;;;;;;;;;;;;;17.46;38.90;95197.25;5030349;28;20010;-68
2022/11/08 12:32:19;;;;;;;;;;;;;;;17.23;39.34;95193.56;5031244;28;20422;-68
2022/11/08 12:34:53;;;;;;;;;;;;;;;17.21;40.07;95204.69;5031095;28;20093;-68
2022/11/08 12:37:32;;;;;;;;;;;;;;;17.84;38.97;95201.28;5028877;28;20071;-69
2022/11/08 12:39:57;;;;;;;;;;;;;;;17.55;39.58;95197.84;5027982;28;20053;-68
2022/11/08 12:42:46;;;;;;;;;;;;;;;18.02;38.37;95194.41;5029256;28;20046;-67
2022/11/08 12:45:28;;;;;;;;;;;;;;;17.90;38.12;95197.97;5029063;28;20037;-67
2022/11/08 12:48:13;;;;;;;;;;;;;;;17.63;41.48;95204.97;5029955;28;20006;-67
2022/11/08 12:50:49;;;;;;;;;;;;;;;17.07;43.17;95207.75;5017311;28;20025;-67
2022/11/08 12:53:33;;;;;;;;;;;;;;;16.88;43.74;95202.25;5029300;28;20079;-67
2022/11/08 12:56:00;;;;;;;;;;;;;;;17.13;43.64;95208.28;5030368;28;20049;-67
2022/11/08 12:58:29;;;;;;;;;;;;;;;17.13;43.04;95208.28;5030194;28;20471;-65
2022/11/08 13:00:58;;;;;;;;;;;;;;;17.58;42.78;95207.16;5023837;28;20320;-67
2022/11/08 13:03:49;;;;;;;;;;;;;;;17.59;42.64;95208.72;5010890;28;20105;-67
2022/11/08 13:06:27;;;;;;;;;;;;;;;17.15;43.54;95212.22;5011855;28;20050;-67
2022/11/08 13:09:01;;;;;;;;;;;;;;;17.26;44.09;95206.34;5028211;28;20068;-69
2022/11/08 13:11:40;;;;;;;;;;;;;;;16.81;44.82;95215.50;5028248;28;20014;-68
2022/11/08 13:14:11;;;;;;;;;;;;;;;17.04;44.69;95215.72;5028701;28;20014;-68
2022/11/08 13:16:40;;;;;;;;;;;;;;;16.77;45.86;95222.66;5028798;28;20024;-68